Jefferson, NC

8:42 AM EST on December 09, 2019 (GMT -0500)
Ashe County

Weather History for KGEV - November, 2019

Change the Weather History Date:

Wednesday, November 20, 2019

  Actual Average Record
Temperature  
Mean Temperature 40 °F -  
Max Temperature 45 °F 53 °F 70 °F (1985)
Min Temperature 35 °F 31 °F 14 °F (1980)
Degree Days  
Heating Degree Days 25    
Moisture  
Dew Point 33 °F    
Average Humidity 76    
Maximum Humidity 92    
Minimum Humidity 59    
Precipitation  
Precipitation 0.00 in - - ()
Sea Level Pressure  
Sea Level Pressure 30.10 in    
Wind  
Wind Speed 7 mph ()    
Max Wind Speed 20 mph    
Max Gust Speed 31 mph    
Visibility 10.0 miles    
Events      
Averages and records for this station are not official NWS values.
T = Trace of Precipitation, MM = Missing Value Source: Averaged Metar Reports

Daily Weather History Graph

Daily Weather History Graph

Search for Another Location

Airport or City:

Astronomy

Nov. 20, 2019 Rise Set
Actual Time 7:07 AM EST 5:14 PM EST
Civil Twilight 6:40 AM EST 5:42 PM EST
Nautical Twilight 6:08 AM EST 6:13 PM EST
Astronomical Twilight 5:38 AM EST 6:44 PM EST
Moon 12:07 AM EST (11/20) 1:55 PM EST (11/20)
Length of Visible Light 11h 01m
Length of Day
10h 06m
Last Quarter, 41% of the Moon is Illuminated
Nov 20
Last Quarter
Nov 26
New
Dec 4
First Quarter
Dec 12
Full
Dec 18
Last Quarter

Hourly Weather History & Observations

Time (EST) Temp. Windchill Dew Point Humidity Pressure Visibility Wind Dir Wind Speed Gust Speed Precip Events Conditions
12:15 AM 37.4 °F 32.8 °F 32.0 °F 81% 29.89 in 10.0 mi WNW 5.8 mph - N/A   Overcast
12:55 AM 37.6 °F 33.1 °F 32.2 °F 81% 29.89 in 10.0 mi WNW 5.8 mph - N/A   Overcast
1:15 AM 37.9 °F 34.4 °F 32.4 °F 80% 29.90 in 10.0 mi NW 4.6 mph - N/A   Overcast
1:35 AM 37.9 °F 35.5 °F 32.9 °F 82% 29.91 in 10.0 mi West 3.5 mph - N/A   Overcast
1:55 AM 37.6 °F 31.6 °F 33.4 °F 85% 29.91 in 10.0 mi NW 8.1 mph - N/A   Overcast
2:15 AM 37.4 °F 30.8 °F 33.8 °F 87% 29.92 in 10.0 mi NW 9.2 mph - N/A   Overcast
2:35 AM 37.4 °F 32.1 °F 33.8 °F 87% 29.93 in 10.0 mi NW 6.9 mph - N/A   Overcast
2:55 AM 37.4 °F 32.8 °F 33.4 °F 86% 29.93 in 10.0 mi NW 5.8 mph - N/A   Overcast
3:15 AM 37.6 °F 34.0 °F 33.3 °F 84% 29.94 in 10.0 mi WNW 4.6 mph - N/A   Overcast
3:35 AM 37.8 °F 33.3 °F 32.9 °F 83% 29.95 in 10.0 mi WNW 5.8 mph - N/A   Overcast
4:15 AM 37.4 °F 32.1 °F 32.9 °F 84% 29.97 in 10.0 mi NW 6.9 mph - N/A   Overcast
4:35 AM 37.4 °F 29.8 °F 32.9 °F 84% 29.97 in 10.0 mi WNW 11.5 mph 17.3 mph N/A   Mostly Cloudy
4:55 AM 37.4 °F 33.8 °F 33.3 °F 85% 29.98 in 10.0 mi NNW 4.6 mph - N/A   Overcast
5:15 AM 37.4 °F 30.8 °F 33.4 °F 86% 29.98 in 10.0 mi NW 9.2 mph 17.3 mph N/A   Overcast
5:35 AM 37.4 °F 28.9 °F 32.9 °F 84% 29.98 in 10.0 mi NW 13.8 mph 21.9 mph N/A   Mostly Cloudy
5:55 AM 37.2 °F 29.1 °F 32.5 °F 83% 29.99 in 10.0 mi WNW 12.7 mph 24.2 mph N/A   Clear
6:15 AM 36.9 °F 29.6 °F 32.9 °F 86% 30.00 in 10.0 mi WNW 10.4 mph 19.6 mph N/A   Clear
6:55 AM 36.5 °F 29.7 °F 32.9 °F 87% 30.03 in 10.0 mi NW 9.2 mph - N/A   Mostly Cloudy
7:15 AM 36.9 °F 29.6 °F 32.9 °F 86% 30.04 in 10.0 mi NW 10.4 mph 19.6 mph N/A   Mostly Cloudy
7:35 AM 37.0 °F 28.9 °F 32.9 °F 85% 30.05 in 10.0 mi NW 12.7 mph 19.6 mph N/A   Overcast
7:55 AM 37.4 °F 31.4 °F 32.9 °F 84% 30.06 in 10.0 mi NW 8.1 mph 18.4 mph N/A   Overcast
8:35 AM 37.8 °F 30.7 °F 32.5 °F 81% 30.08 in 10.0 mi NW 10.4 mph - N/A   Mostly Cloudy
9:15 AM 38.5 °F 29.6 °F 32.0 °F 78% 30.09 in 10.0 mi NW 16.1 mph 23.0 mph N/A   Overcast
9:35 AM 38.3 °F 28.4 °F 32.0 °F 78% 30.09 in 10.0 mi NW 19.6 mph 31.1 mph N/A   Overcast
9:55 AM 39.7 °F 31.9 °F 32.0 °F 74% 30.10 in 10.0 mi NW 13.8 mph 23.0 mph N/A   Scattered Clouds
10:15 AM 40.3 °F 33.0 °F 32.0 °F 72% 30.11 in 10.0 mi NW 12.7 mph 19.6 mph N/A   Clear
10:35 AM 41.9 °F 34.6 °F 31.8 °F 67% 30.13 in 10.0 mi NW 13.8 mph 19.6 mph N/A   Clear
10:55 AM 42.1 °F 36.1 °F 31.6 °F 67% 30.14 in 10.0 mi NW 10.4 mph 18.4 mph N/A   Scattered Clouds
11:15 AM 43.0 °F 36.8 °F 31.3 °F 63% 30.15 in 10.0 mi NW 11.5 mph 24.2 mph N/A   Scattered Clouds
11:35 AM 41.9 °F 35.4 °F 31.5 °F 66% 30.15 in 10.0 mi NW 11.5 mph 18.4 mph N/A   Mostly Cloudy
11:55 AM 42.8 °F 36.2 °F 31.6 °F 65% 30.14 in 10.0 mi NW 12.7 mph 20.7 mph N/A   Mostly Cloudy
12:15 PM 43.0 °F 37.2 °F 32.0 °F 65% 30.14 in 10.0 mi NW 10.4 mph - N/A   Overcast
12:35 PM 43.5 °F 37.5 °F 31.8 °F 63% 30.14 in 10.0 mi WNW 11.5 mph 16.1 mph N/A   Mostly Cloudy
12:55 PM 44.2 °F 39.7 °F 32.0 °F 62% 30.14 in 10.0 mi NW 8.1 mph - N/A   Mostly Cloudy
1:15 PM 43.7 °F 41.1 °F 31.6 °F 63% 30.14 in 10.0 mi WNW 4.6 mph - N/A   Scattered Clouds
1:35 PM 44.4 °F 39.0 °F 31.8 °F 61% 30.14 in 10.0 mi NW 10.4 mph 17.3 mph N/A   Clear
1:55 PM 44.8 °F 41.0 °F 32.0 °F 61% 30.15 in 10.0 mi WNW 6.9 mph - N/A   Scattered Clouds
2:15 PM 45.3 °F 40.6 °F 32.0 °F 60% 30.15 in 10.0 mi NW 9.2 mph - N/A   Scattered Clouds
2:35 PM 45.1 °F 39.9 °F 32.0 °F 60% 30.14 in 10.0 mi NW 10.4 mph 16.1 mph N/A   Clear
2:55 PM 45.1 °F 40.3 °F 31.6 °F 59% 30.15 in 10.0 mi WNW 9.2 mph 16.1 mph N/A   Clear
3:35 PM 44.8 °F 39.9 °F 31.6 °F 60% 30.16 in 10.0 mi NW 9.2 mph 18.4 mph N/A   Clear
3:55 PM 43.5 °F 37.9 °F 31.3 °F 62% 30.16 in 10.0 mi NW 10.4 mph 17.3 mph N/A   Clear
4:15 PM 43.5 °F 38.9 °F 31.6 °F 63% 30.17 in 10.0 mi NW 8.1 mph 16.1 mph N/A   Clear
4:35 PM 43.0 °F 37.2 °F 31.6 °F 64% 30.17 in 10.0 mi WNW 10.4 mph 17.3 mph N/A   Clear
4:55 PM 41.9 °F 36.9 °F 31.6 °F 67% 30.17 in 10.0 mi WNW 8.1 mph - N/A   Clear
5:15 PM 41.9 °F - 32.0 °F 68% 30.18 in 10.0 mi Calm Calm - N/A   Clear
5:55 PM 40.5 °F 35.8 °F 32.0 °F 72% 30.18 in 10.0 mi NW 6.9 mph - N/A   Clear
6:15 PM 40.1 °F 35.3 °F 32.0 °F 73% 30.19 in 10.0 mi WNW 6.9 mph - N/A   Clear
6:35 PM 40.3 °F 35.5 °F 32.0 °F 72% 30.19 in 10.0 mi WNW 6.9 mph - N/A   Clear
6:55 PM 39.7 °F 34.3 °F 32.2 °F 74% 30.20 in 10.0 mi WNW 8.1 mph - N/A   Clear
7:15 PM 39.4 °F - 32.4 °F 76% 30.20 in 10.0 mi Calm Calm - N/A   Clear
7:35 PM 39.4 °F 36.1 °F 32.9 °F 78% 30.21 in 10.0 mi West 4.6 mph - N/A   Clear
7:55 PM 39.4 °F 32.7 °F 33.8 °F 80% 30.21 in 10.0 mi WNW 10.4 mph - N/A   Clear
8:15 PM 39.4 °F 33.8 °F 34.0 °F 81% 30.22 in 10.0 mi WNW 8.1 mph - N/A   Clear
8:35 PM 39.2 °F 34.2 °F 34.2 °F 82% 30.22 in 10.0 mi WNW 6.9 mph - N/A   Clear
8:55 PM 39.0 °F 36.8 °F 34.0 °F 82% 30.22 in 10.0 mi WNW 3.5 mph - N/A   Clear
9:55 PM 38.7 °F - 33.8 °F 83% 30.21 in 10.0 mi Calm Calm - N/A   Clear
10:15 PM 37.9 °F - 33.8 °F 85% 30.23 in 10.0 mi Calm Calm - N/A   Clear
10:35 PM 37.0 °F - 33.8 °F 88% 30.23 in 10.0 mi Calm Calm - N/A   Clear
10:55 PM 36.0 °F - 33.6 °F 91% 30.23 in 10.0 mi Calm Calm - N/A   Clear
11:15 PM 37.6 °F 35.1 °F 34.3 °F 88% 30.23 in 10.0 mi West 3.5 mph - N/A   Clear
11:35 PM 35.2 °F 32.4 °F 33.3 °F 92% 30.23 in 10.0 mi WNW 3.5 mph - N/A   Clear
11:55 PM 38.3 °F 35.9 °F 34.2 °F 85% 30.24 in 10.0 mi West 3.5 mph - N/A   Clear